createdAt,value
2017-09-05T00:00:56.067Z,74.30
2017-09-05T00:03:23.848Z,74.40
2017-09-05T00:05:51.402Z,74.40
2017-09-05T00:08:21.453Z,74.80
2017-09-05T00:13:51.313Z,75.00
2017-09-05T00:16:19.660Z,75.30
2017-09-05T00:18:47.199Z,75.00
2017-09-05T00:21:17.882Z,74.50
2017-09-05T00:23:45.483Z,74.50
2017-09-05T00:26:23.588Z,75.20
2017-09-05T00:33:54.123Z,74.00
2017-09-05T00:36:21.668Z,74.40
2017-09-05T00:38:49.213Z,74.50
2017-09-05T00:41:16.796Z,74.40
2017-09-05T00:43:44.765Z,74.20
2017-09-05T00:46:12.300Z,74.20
2017-09-05T00:48:39.867Z,74.30
2017-09-05T00:51:07.406Z,74.20
2017-09-05T00:53:34.941Z,74.40
2017-09-05T00:56:02.504Z,75.00
2017-09-05T00:58:30.041Z,74.80
2017-09-05T01:00:57.576Z,74.40
2017-09-05T01:03:25.179Z,74.30
2017-09-05T01:05:52.711Z,73.90
2017-09-05T01:08:20.252Z,73.60
2017-09-05T01:10:47.807Z,73.50
2017-09-05T01:13:16.515Z,73.70
2017-09-05T01:15:44.060Z,72.80
2017-09-05T01:18:11.615Z,74.10
2017-09-05T01:20:39.155Z,74.20
2017-09-05T01:23:06.688Z,74.50
2017-09-05T01:25:34.442Z,74.80
2017-09-05T01:28:01.972Z,74.60
2017-09-05T01:30:29.504Z,74.40
2017-09-05T01:32:57.068Z,73.20
2017-09-05T01:35:24.600Z,74.20
2017-09-05T01:37:52.131Z,74.30
2017-09-05T01:40:19.700Z,74.60
2017-09-05T01:42:48.004Z,73.30
2017-09-05T01:45:17.905Z,73.80
2017-09-05T01:47:45.515Z,73.70
2017-09-05T01:50:25.041Z,73.70
2017-09-05T01:55:34.244Z,74.50
2017-09-05T01:58:01.816Z,74.10
2017-09-05T02:00:30.118Z,75.00
2017-09-05T02:02:57.705Z,75.00
2017-09-05T02:05:25.248Z,74.90
2017-09-05T02:07:52.794Z,74.50
2017-09-05T02:10:20.393Z,73.90
2017-09-05T02:12:47.927Z,74.30
2017-09-05T02:15:17.317Z,74.60
2017-09-05T02:17:44.872Z,74.60
2017-09-05T02:20:12.404Z,74.40
2017-09-05T02:22:39.944Z,74.60
2017-09-05T02:25:07.544Z,75.00
2017-09-05T02:27:35.096Z,75.20
2017-09-05T02:30:02.652Z,75.00
2017-09-05T02:32:30.238Z,75.20
2017-09-05T02:34:57.784Z,74.50
2017-09-05T02:37:25.320Z,75.00
2017-09-05T02:39:53.651Z,75.20
2017-09-05T02:42:21.196Z,75.20
2017-09-05T02:44:48.731Z,75.30
2017-09-05T02:47:16.728Z,74.80
2017-09-05T02:49:45.037Z,75.60
2017-09-05T02:52:13.507Z,75.60
2017-09-05T02:54:41.079Z,75.70
2017-09-05T02:57:08.616Z,75.80
2017-09-05T02:59:36.152Z,75.50
2017-09-05T03:02:03.716Z,75.30
2017-09-05T03:04:31.251Z,75.60
2017-09-05T03:06:58.779Z,75.30
2017-09-05T03:09:26.379Z,75.20
2017-09-05T03:11:54.672Z,75.50
2017-09-05T03:14:22.208Z,75.50
2017-09-05T03:16:50.587Z,75.20
2017-09-05T03:19:18.125Z,75.20
2017-09-05T03:21:45.665Z,75.10
2017-09-05T03:24:14.580Z,75.60
2017-09-05T03:26:42.109Z,75.60
2017-09-05T03:29:09.644Z,76.00
2017-09-05T03:31:37.236Z,76.10
2017-09-05T03:34:04.768Z,76.10
2017-09-05T03:36:32.304Z,75.80
2017-09-05T03:39:00.628Z,75.30
2017-09-05T03:41:28.156Z,75.20
2017-09-05T03:43:55.696Z,75.10
2017-09-05T03:46:24.019Z,74.90
2017-09-05T03:48:52.868Z,74.90
2017-09-05T03:51:20.411Z,75.60
2017-09-05T03:53:48.012Z,74.80
2017-09-05T03:56:16.453Z,74.40
2017-09-05T03:58:44.007Z,74.40
2017-09-05T04:01:11.580Z,74.00
2017-09-05T04:03:39.880Z,73.50
2017-09-05T04:06:07.456Z,73.40
2017-09-05T04:08:35.016Z,74.00
2017-09-05T04:11:02.571Z,74.20
2017-09-05T04:13:30.113Z,74.00
2017-09-05T04:15:57.696Z,74.40
2017-09-05T04:18:25.236Z,73.50
2017-09-05T04:20:52.771Z,74.50
2017-09-05T04:23:20.359Z,74.20
2017-09-05T04:25:47.895Z,73.90
2017-09-05T04:28:16.404Z,74.00
2017-09-05T04:30:43.964Z,74.10
2017-09-05T04:33:11.500Z,74.40
2017-09-05T04:35:39.800Z,74.60
2017-09-05T04:38:07.399Z,74.50
2017-09-05T04:40:34.933Z,74.60
2017-09-05T04:43:02.493Z,74.80
2017-09-05T04:45:30.058Z,74.50
2017-09-05T04:48:00.851Z,74.80
2017-09-05T04:50:28.729Z,74.70
2017-09-05T04:52:57.079Z,74.50
2017-09-05T04:55:24.615Z,74.30
2017-09-05T04:57:52.158Z,74.60
2017-09-05T05:00:19.772Z,74.20
2017-09-05T05:02:47.312Z,74.40
2017-09-05T05:05:16.495Z,74.10
2017-09-05T05:07:44.055Z,74.50
2017-09-05T05:10:11.584Z,74.30
2017-09-05T05:12:39.156Z,74.40
2017-09-05T05:15:06.797Z,74.50
2017-09-05T05:17:34.358Z,74.70
2017-09-05T05:20:01.886Z,74.10
2017-09-05T05:22:30.316Z,73.20
2017-09-05T05:24:57.849Z,73.10
2017-09-05T05:27:25.388Z,72.80
2017-09-05T05:29:52.975Z,72.90
2017-09-05T05:32:20.536Z,72.80
2017-09-05T05:34:48.071Z,72.90
2017-09-05T05:37:16.524Z,73.30
2017-09-05T05:39:44.055Z,73.10
2017-09-05T05:42:11.592Z,73.20
2017-09-05T05:44:39.187Z,73.20
2017-09-05T05:47:07.679Z,73.40
2017-09-05T05:49:35.213Z,73.10
2017-09-05T05:52:03.376Z,72.80
2017-09-05T05:54:30.920Z,72.80
2017-09-05T05:56:58.458Z,72.70
2017-09-05T05:59:26.024Z,72.50
2017-09-05T06:01:53.556Z,72.40
2017-09-05T06:04:21.080Z,71.20
2017-09-05T06:06:48.676Z,71.10
2017-09-05T06:09:16.451Z,71.00
2017-09-05T06:11:44.669Z,71.10
2017-09-05T06:14:12.236Z,71.50
2017-09-05T06:16:40.459Z,71.60
2017-09-05T06:19:07.992Z,71.10
2017-09-05T06:21:35.564Z,70.70
2017-09-05T06:24:03.100Z,71.00
2017-09-05T06:26:30.638Z,70.70
2017-09-05T06:28:58.256Z,70.70
2017-09-05T06:31:25.780Z,70.40
2017-09-05T06:33:53.312Z,70.20
2017-09-05T06:36:21.660Z,71.40
2017-09-05T06:38:49.199Z,71.30
2017-09-05T06:41:16.732Z,71.80
2017-09-05T06:43:44.284Z,70.90
2017-09-05T06:46:11.935Z,70.50
2017-09-05T06:48:41.243Z,70.10
2017-09-05T06:51:08.811Z,70.40
2017-09-05T06:53:36.756Z,70.90
2017-09-05T06:56:05.051Z,69.70
2017-09-05T06:58:32.625Z,69.70
2017-09-05T07:01:00.156Z,69.00
2017-09-05T07:03:27.688Z,69.50
2017-09-05T07:05:55.252Z,69.00
2017-09-05T07:08:22.792Z,68.80
2017-09-05T07:10:50.315Z,68.90
2017-09-05T07:13:17.895Z,68.20
2017-09-05T07:15:48.061Z,69.00
2017-09-05T07:18:16.481Z,68.70
2017-09-05T07:20:44.108Z,68.10
2017-09-05T07:23:11.669Z,68.10
2017-09-05T07:25:39.998Z,66.90
2017-09-05T07:28:07.616Z,67.50
2017-09-05T07:30:35.936Z,65.80
2017-09-05T07:33:03.505Z,65.80
2017-09-05T07:35:31.598Z,66.70
2017-09-05T07:37:59.165Z,66.90
2017-09-05T07:40:26.728Z,66.70
2017-09-05T07:42:54.332Z,66.10
2017-09-05T07:45:21.870Z,65.90
2017-09-05T07:47:49.400Z,65.60
2017-09-05T07:50:16.967Z,65.60
2017-09-05T07:52:44.525Z,66.10
2017-09-05T07:55:12.520Z,67.20
2017-09-05T07:57:40.254Z,67.40
2017-09-05T08:00:07.798Z,66.50
2017-09-05T08:02:35.360Z,67.00
2017-09-05T08:05:02.921Z,67.20
2017-09-05T08:07:30.533Z,67.20
2017-09-05T08:09:58.393Z,66.50
2017-09-05T08:12:26.028Z,66.70
2017-09-05T08:14:53.564Z,66.50
2017-09-05T08:17:21.101Z,66.20
2017-09-05T08:19:48.685Z,65.60
2017-09-05T08:22:16.456Z,65.70
2017-09-05T08:24:44.040Z,66.70
2017-09-05T08:27:11.602Z,67.80
2017-09-05T08:29:39.167Z,68.40
2017-09-05T08:32:06.720Z,68.60
2017-09-05T08:34:34.275Z,70.10
2017-09-05T08:37:01.805Z,72.30
2017-09-05T08:39:29.335Z,75.30
2017-09-05T08:41:56.913Z,76.90
2017-09-05T08:44:24.450Z,77.90
2017-09-05T08:46:52.008Z,78.30
2017-09-05T08:49:19.661Z,78.20
2017-09-05T08:51:47.995Z,77.80
2017-09-05T08:54:16.387Z,77.80
2017-09-05T08:56:44.522Z,77.50
2017-09-05T08:59:12.069Z,75.80
2017-09-05T09:01:39.610Z,74.60
2017-09-05T09:04:07.959Z,74.10
2017-09-05T09:06:35.502Z,74.10
2017-09-05T09:09:03.061Z,72.80
2017-09-05T09:11:30.627Z,72.90
2017-09-05T09:13:58.213Z,71.10
2017-09-05T09:16:25.762Z,71.00
2017-09-05T09:18:53.350Z,70.60
2017-09-05T09:21:20.932Z,69.70
2017-09-05T09:23:48.471Z,69.80
2017-09-05T09:26:16.557Z,68.80
2017-09-05T09:28:44.088Z,70.00
2017-09-05T09:31:11.620Z,68.70
2017-09-05T09:33:39.184Z,66.80
2017-09-05T09:36:06.709Z,65.60
2017-09-05T09:38:34.415Z,63.40
2017-09-05T09:41:02.083Z,59.70
2017-09-05T09:43:29.609Z,55.80
2017-09-05T09:45:57.142Z,54.60
2017-09-05T09:48:24.836Z,53.80
2017-09-05T09:50:52.368Z,52.70
2017-09-05T09:53:20.205Z,53.50
2017-09-05T09:55:47.965Z,52.00
2017-09-05T09:58:16.967Z,51.30
2017-09-05T10:00:44.660Z,52.00
2017-09-05T10:03:12.376Z,52.20
2017-09-05T10:05:39.989Z,52.10
2017-09-05T10:08:07.528Z,52.40
2017-09-05T10:10:35.445Z,52.80
2017-09-05T10:13:02.989Z,53.10
2017-09-05T10:15:30.564Z,53.50
2017-09-05T10:17:58.133Z,53.90
2017-09-05T10:20:25.776Z,54.20
2017-09-05T10:22:53.324Z,55.70
2017-09-05T10:25:20.901Z,54.90
2017-09-05T10:27:48.448Z,54.10
2017-09-05T10:30:17.223Z,55.70
2017-09-05T10:32:44.828Z,55.60
2017-09-05T10:35:12.465Z,57.10
2017-09-05T10:37:40.014Z,56.70
2017-09-05T10:40:07.576Z,56.20
2017-09-05T10:42:35.103Z,56.10
2017-09-05T10:45:02.627Z,54.50
2017-09-05T10:47:30.307Z,55.90
2017-09-05T10:49:57.896Z,56.70
2017-09-05T10:52:25.436Z,56.40
2017-09-05T10:54:53.015Z,57.40
2017-09-05T10:57:20.559Z,57.50
2017-09-05T10:59:49.148Z,55.60
2017-09-05T11:02:16.759Z,55.60
2017-09-05T11:04:44.297Z,56.10
2017-09-05T11:07:11.837Z,55.80
2017-09-05T11:09:39.407Z,55.80
2017-09-05T11:12:06.959Z,55.70
2017-09-05T11:14:34.488Z,55.60
2017-09-05T11:17:02.080Z,56.80
2017-09-05T11:19:30.396Z,54.80
2017-09-05T11:21:57.936Z,54.80
2017-09-05T11:24:25.495Z,54.70
2017-09-05T11:26:53.062Z,54.30
2017-09-05T11:29:21.204Z,55.10
2017-09-05T11:31:48.775Z,56.10
2017-09-05T11:34:16.384Z,55.90
2017-09-05T11:36:43.917Z,56.40
2017-09-05T11:39:14.795Z,55.90
2017-09-05T11:41:42.330Z,55.50
2017-09-05T11:44:09.865Z,55.60
2017-09-05T11:46:37.428Z,54.90
2017-09-05T11:49:12.512Z,53.20
2017-09-05T11:51:40.068Z,53.20
2017-09-05T11:54:07.780Z,54.10
2017-09-05T11:56:36.286Z,53.40
2017-09-05T11:59:04.069Z,53.30
2017-09-05T12:01:31.800Z,54.90
2017-09-05T12:04:00.100Z,53.70
2017-09-05T12:06:28.451Z,52.20
2017-09-05T12:08:55.988Z,52.20
2017-09-05T12:11:23.526Z,52.70
2017-09-05T12:13:51.080Z,52.60
2017-09-05T12:16:18.612Z,53.10
2017-09-05T12:18:46.137Z,50.10
2017-09-05T12:21:26.513Z,52.40
2017-09-05T12:26:38.488Z,51.40
2017-09-05T12:29:06.788Z,53.20
2017-09-05T12:31:34.316Z,53.20
2017-09-05T12:34:01.872Z,51.40
2017-09-05T12:36:29.408Z,50.60
2017-09-05T12:38:56.944Z,51.10
2017-09-05T12:41:24.537Z,51.30
2017-09-05T12:43:52.071Z,52.60
2017-09-05T12:46:19.601Z,52.50
2017-09-05T12:48:47.157Z,53.70
2017-09-05T12:51:15.516Z,52.00
2017-09-05T12:53:43.165Z,51.90
2017-09-05T12:56:10.725Z,51.20
2017-09-05T12:58:38.261Z,51.80
2017-09-05T13:01:05.791Z,53.20
2017-09-05T13:03:33.979Z,52.30
2017-09-05T13:06:02.279Z,53.10
2017-09-05T13:08:29.808Z,53.10
2017-09-05T13:10:58.154Z,53.30
2017-09-05T13:13:25.690Z,52.70
2017-09-05T13:15:53.219Z,52.10
2017-09-05T13:18:20.779Z,53.40
2017-09-05T13:20:48.303Z,54.60
2017-09-05T13:23:16.397Z,53.40
2017-09-05T13:25:44.752Z,54.00
2017-09-05T13:28:12.298Z,53.90
2017-09-05T13:30:39.860Z,53.80
2017-09-05T13:33:07.413Z,54.10
2017-09-05T13:35:34.961Z,53.50
2017-09-05T13:38:02.514Z,53.90
2017-09-05T13:40:30.079Z,54.00
2017-09-05T13:42:57.613Z,54.10
2017-09-05T13:45:25.164Z,54.30
2017-09-05T13:47:53.520Z,56.70
2017-09-05T13:50:21.057Z,56.70
2017-09-05T13:52:48.594Z,57.30
2017-09-05T13:55:16.508Z,56.60
2017-09-05T13:57:44.036Z,54.70
2017-09-05T14:00:11.564Z,52.80
2017-09-05T14:02:39.124Z,52.50
2017-09-05T14:05:06.980Z,52.00
2017-09-05T14:07:34.549Z,51.70
2017-09-05T14:10:02.172Z,53.10
2017-09-05T14:12:30.505Z,51.00
2017-09-05T14:14:58.073Z,51.00
2017-09-05T14:17:25.701Z,51.70
2017-09-05T14:19:54.020Z,52.60
2017-09-05T14:22:21.585Z,52.50
2017-09-05T14:24:49.175Z,53.10
2017-09-05T14:27:16.720Z,52.20
2017-09-05T14:29:44.273Z,51.60
2017-09-05T14:32:11.883Z,51.20
2017-09-05T14:37:15.343Z,52.40
2017-09-05T14:39:43.016Z,52.40
2017-09-05T14:42:10.572Z,52.40
2017-09-05T14:44:38.145Z,52.70
2017-09-05T14:47:05.702Z,52.90
2017-09-05T14:49:33.300Z,53.00
2017-09-05T14:52:02.860Z,53.10
2017-09-05T14:54:30.405Z,53.10
2017-09-05T14:56:57.981Z,53.80
2017-09-05T14:59:25.572Z,54.10
2017-09-05T15:01:53.142Z,54.80
2017-09-05T15:04:20.798Z,56.00
2017-09-05T15:06:49.034Z,54.30
2017-09-05T15:09:16.592Z,54.70
2017-09-05T15:11:44.213Z,53.30
2017-09-05T15:14:11.824Z,54.70
2017-09-05T15:16:39.365Z,54.00
2017-09-05T15:19:06.905Z,53.90
2017-09-05T15:21:34.501Z,55.20
2017-09-05T15:24:02.043Z,55.60
2017-09-05T15:26:29.593Z,54.50
2017-09-05T15:28:57.188Z,54.00
2017-09-05T15:31:24.733Z,54.90
2017-09-05T15:33:52.289Z,54.50
2017-09-05T15:36:19.890Z,56.40
2017-09-05T15:38:47.426Z,55.00
2017-09-05T15:41:16.527Z,56.00
2017-09-05T15:43:44.083Z,56.40
2017-09-05T15:46:11.608Z,55.20
2017-09-05T15:48:39.143Z,54.90
2017-09-05T15:51:07.553Z,55.10
2017-09-05T15:53:35.083Z,55.00
2017-09-05T15:56:03.380Z,55.50
2017-09-05T15:58:31.006Z,55.50
2017-09-05T16:00:59.508Z,55.30
2017-09-05T16:03:27.044Z,55.30
2017-09-05T16:05:54.610Z,55.50
2017-09-05T16:08:22.385Z,55.60
2017-09-05T16:10:49.954Z,55.50
2017-09-05T16:13:17.565Z,55.20
2017-09-05T16:15:45.098Z,55.70
2017-09-05T16:18:14.456Z,56.40
2017-09-05T16:20:42.101Z,56.70
2017-09-05T16:23:09.732Z,57.50
2017-09-05T16:25:38.154Z,57.60
2017-09-05T16:28:05.844Z,57.60
2017-09-05T16:30:33.449Z,57.60
2017-09-05T16:33:00.987Z,58.20
2017-09-05T16:35:28.548Z,58.90
2017-09-05T16:37:58.676Z,59.40
2017-09-05T16:40:26.250Z,58.60
2017-09-05T16:42:53.836Z,59.50
2017-09-05T16:45:22.885Z,60.30
2017-09-05T16:47:51.940Z,60.10
2017-09-05T16:50:19.547Z,59.40
2017-09-05T16:52:49.189Z,59.20
2017-09-05T16:55:16.788Z,59.20
2017-09-05T16:57:44.563Z,59.00
2017-09-05T17:00:12.968Z,57.40
2017-09-05T17:02:40.577Z,57.90
2017-09-05T17:05:08.565Z,58.60
2017-09-05T17:07:36.732Z,58.60
2017-09-05T17:10:04.561Z,58.60
2017-09-05T17:12:32.196Z,57.70
2017-09-05T17:14:59.808Z,58.30
2017-09-05T17:17:27.411Z,58.70
2017-09-05T17:19:55.133Z,59.10
2017-09-05T17:22:22.720Z,59.00
2017-09-05T17:24:51.218Z,59.10
2017-09-05T17:27:18.885Z,58.80
2017-09-05T17:29:46.516Z,61.00
2017-09-05T17:32:16.305Z,62.10
2017-09-05T17:34:43.969Z,62.10
2017-09-05T17:37:12.385Z,64.30
2017-09-05T17:39:40.120Z,64.30
2017-09-05T17:42:10.921Z,65.80
2017-09-05T17:44:39.103Z,65.80
2017-09-05T17:47:06.706Z,67.00
2017-09-05T17:49:34.413Z,67.20
2017-09-05T17:52:02.021Z,67.50
2017-09-05T17:54:30.384Z,68.00
2017-09-05T17:56:58.101Z,68.00
2017-09-05T17:59:25.671Z,68.50
2017-09-05T18:01:53.488Z,69.00
2017-09-05T18:04:21.189Z,68.70
2017-09-05T18:06:48.936Z,68.60
2017-09-05T18:09:16.573Z,68.80
2017-09-05T18:11:45.036Z,69.20
2017-09-05T18:14:13.668Z,69.60
2017-09-05T18:16:41.269Z,69.90
2017-09-05T18:19:08.868Z,69.90
2017-09-05T18:21:36.501Z,70.20
2017-09-05T18:24:04.287Z,70.30
2017-09-05T18:26:31.887Z,70.60
2017-09-05T18:28:59.485Z,71.10
2017-09-05T18:31:27.261Z,71.30
2017-09-05T18:33:55.101Z,71.70
2017-09-05T18:36:23.226Z,72.20
2017-09-05T18:38:54.489Z,72.20
2017-09-05T18:41:23.345Z,72.00
2017-09-05T18:43:51.091Z,72.90
2017-09-05T18:46:18.636Z,72.30
2017-09-05T18:48:46.404Z,71.70
2017-09-05T18:51:16.347Z,74.00
2017-09-05T18:53:44.856Z,73.30
2017-09-05T18:56:14.056Z,73.20
2017-09-05T18:58:41.668Z,73.00
2017-09-05T19:01:09.212Z,72.70
2017-09-05T19:03:36.993Z,72.70
2017-09-05T19:06:04.710Z,72.80
2017-09-05T19:08:32.338Z,72.70
2017-09-05T19:11:00.749Z,73.40
2017-09-05T19:13:28.386Z,73.30
2017-09-05T19:15:56.179Z,73.40
2017-09-05T19:18:23.837Z,73.20
2017-09-05T19:20:51.577Z,73.00
2017-09-05T19:23:19.181Z,73.40
2017-09-05T19:25:46.801Z,73.60
2017-09-05T19:28:16.531Z,73.70
2017-09-05T19:30:44.137Z,73.60
2017-09-05T19:33:11.895Z,73.80
2017-09-05T19:35:39.635Z,73.60
2017-09-05T19:38:07.167Z,73.30
2017-09-05T19:40:34.947Z,73.10
2017-09-05T19:43:02.576Z,74.00
2017-09-05T19:45:30.920Z,73.70
2017-09-05T19:47:58.584Z,73.60
2017-09-05T19:50:26.349Z,73.50
2017-09-05T19:52:54.566Z,73.40
2017-09-05T19:55:23.099Z,73.80
2017-09-05T19:57:50.830Z,73.70
2017-09-05T20:00:18.545Z,73.50
2017-09-05T20:02:46.449Z,74.00
2017-09-05T20:05:16.629Z,73.40
2017-09-05T20:07:44.368Z,73.40
2017-09-05T20:10:11.980Z,73.40
2017-09-05T20:12:39.603Z,73.70
2017-09-05T20:15:07.932Z,74.10
2017-09-05T20:17:35.566Z,74.10
2017-09-05T20:20:03.169Z,74.10
2017-09-05T20:22:30.787Z,74.30
2017-09-05T20:24:58.708Z,75.10
2017-09-05T20:27:26.301Z,75.40
2017-09-05T20:29:53.892Z,75.00
2017-09-05T20:32:21.515Z,75.00
2017-09-05T20:34:49.112Z,75.10
2017-09-05T20:37:16.712Z,75.10
2017-09-05T20:39:44.267Z,75.00
2017-09-05T20:42:11.800Z,75.00
2017-09-05T20:44:39.356Z,75.10
2017-09-05T20:47:07.009Z,76.00
2017-09-05T20:49:34.547Z,75.60
2017-09-05T20:52:02.152Z,76.00
2017-09-05T20:54:30.588Z,75.50
2017-09-05T20:56:58.133Z,75.30
2017-09-05T20:59:25.867Z,75.60
2017-09-05T21:01:54.261Z,76.50
2017-09-05T21:04:21.864Z,76.50
2017-09-05T21:06:49.736Z,76.20
2017-09-05T21:09:17.386Z,76.60
2017-09-05T21:11:44.990Z,76.60
2017-09-05T21:14:12.535Z,76.50
2017-09-05T21:16:40.717Z,76.50
2017-09-05T21:19:08.276Z,76.50
2017-09-05T21:21:35.877Z,76.80
2017-09-05T21:24:03.440Z,76.50
2017-09-05T21:26:31.045Z,76.80
2017-09-05T21:28:58.658Z,76.60
2017-09-05T21:31:26.312Z,76.90
2017-09-05T21:33:53.913Z,76.80
2017-09-05T21:36:21.529Z,76.70
2017-09-05T21:38:49.155Z,76.70
2017-09-05T21:41:16.753Z,76.80
2017-09-05T21:43:44.349Z,76.90
2017-09-05T21:46:11.911Z,77.00
2017-09-05T21:48:39.450Z,77.00
2017-09-05T21:51:06.996Z,77.00
2017-09-05T21:53:34.645Z,76.90
2017-09-05T21:56:02.176Z,77.00
2017-09-05T21:58:29.713Z,77.40
2017-09-05T22:00:57.296Z,77.50
2017-09-05T22:03:24.836Z,77.50
2017-09-05T22:05:52.374Z,77.40
2017-09-05T22:08:19.956Z,77.60
2017-09-05T22:10:47.495Z,77.60
2017-09-05T22:13:17.388Z,78.00
2017-09-05T22:15:45.007Z,77.90
2017-09-05T22:18:12.984Z,78.30
2017-09-05T22:20:46.215Z,79.10
2017-09-05T22:23:23.952Z,78.50
2017-09-05T22:25:57.285Z,78.80
2017-09-05T22:28:30.396Z,79.00
2017-09-05T22:30:57.984Z,78.90
2017-09-05T22:33:25.518Z,79.10
2017-09-05T22:35:53.048Z,79.20
2017-09-05T22:38:20.619Z,79.50
2017-09-05T22:40:48.159Z,79.40
2017-09-05T22:43:16.408Z,79.60
2017-09-05T22:45:43.996Z,79.50
2017-09-05T22:48:11.528Z,79.80
2017-09-05T22:50:39.065Z,79.70
2017-09-05T22:53:06.657Z,79.80
2017-09-05T22:55:34.192Z,79.70
2017-09-05T22:58:01.733Z,79.80
2017-09-05T23:00:29.283Z,79.80
2017-09-05T23:02:56.825Z,79.80
2017-09-05T23:05:24.356Z,79.80
2017-09-05T23:07:51.949Z,79.70
2017-09-05T23:10:20.252Z,79.10
2017-09-05T23:12:47.779Z,79.10
2017-09-05T23:15:16.743Z,79.10
2017-09-05T23:17:44.277Z,78.90
2017-09-05T23:20:12.220Z,78.70
2017-09-05T23:22:39.779Z,78.40
2017-09-05T23:25:07.320Z,78.30
2017-09-05T23:27:35.627Z,78.10
2017-09-05T23:30:03.182Z,78.10
2017-09-05T23:32:30.728Z,78.10
2017-09-05T23:34:58.260Z,78.00
2017-09-05T23:37:25.844Z,78.20
2017-09-05T23:39:53.376Z,78.20
2017-09-05T23:42:20.913Z,78.40
2017-09-05T23:44:48.485Z,78.70
2017-09-05T23:47:16.460Z,78.70
2017-09-05T23:49:44.005Z,78.60
2017-09-05T23:52:11.572Z,78.60
2017-09-05T23:54:39.111Z,78.70
2017-09-05T23:57:06.643Z,79.10
2017-09-05T23:59:34.247Z,79.00
